Time;durP1;ratioP1;P1;durP2;ratioP2;P2;SDS_P1;SDS_P2;PMS_P1;PMS_P2;Temp;Humidity;BMP_temperature;BMP_pressure;BME280_temperature;BME280_humidity;BME280_pressure;Samples;Min_cycle;Max_cycle;Signal;HPM_P1;HPM_P2
2022/10/03 00:00:10;;;;;;;16.20;10.57;;;11.70;99.90;;;;;;5048601;28;21316;-81
2022/10/03 00:03:09;;;;;;;19.70;10.43;;;11.60;99.90;;;;;;5049444;28;20409;-79
2022/10/03 00:05:35;;;;;;;18.67;10.67;;;11.60;99.90;;;;;;5049470;28;20756;-80
2022/10/03 00:08:13;;;;;;;21.10;11.20;;;11.40;99.90;;;;;;5047666;28;20460;-81
2022/10/03 00:11:04;;;;;;;14.37;9.13;;;11.40;99.90;;;;;;5048767;28;20913;-80
2022/10/03 00:14:06;;;;;;;18.73;10.33;;;11.50;99.90;;;;;;5049796;28;20518;-80
2022/10/03 00:16:47;;;;;;;17.73;10.40;;;11.50;99.90;;;;;;5048743;28;20416;-82
2022/10/03 00:19:30;;;;;;;12.33;8.50;;;11.50;99.90;;;;;;5049736;28;20492;-80
2022/10/03 00:22:03;;;;;;;17.90;9.47;;;11.50;99.90;;;;;;5047986;28;20520;-81
2022/10/03 00:24:54;;;;;;;14.10;8.30;;;11.60;99.90;;;;;;5048411;28;20842;-77
2022/10/03 00:27:33;;;;;;;12.13;8.50;;;11.50;99.90;;;;;;5050004;28;20765;-79
2022/10/03 00:30:18;;;;;;;10.93;8.27;;;11.50;99.90;;;;;;5049285;28;20450;-78
2022/10/03 00:33:10;;;;;;;17.80;8.27;;;11.50;99.90;;;;;;5048121;28;20424;-79
2022/10/03 00:35:41;;;;;;;16.70;9.03;;;11.50;99.90;;;;;;5049382;28;20895;-78
2022/10/03 00:38:16;;;;;;;12.97;7.63;;;11.50;99.90;;;;;;5049318;28;20416;-81
2022/10/03 00:41:20;;;;;;;15.80;8.30;;;11.50;99.90;;;;;;5051323;28;20439;-81
2022/10/03 00:44:17;;;;;;;12.90;7.50;;;11.50;99.90;;;;;;5048895;28;20542;-79
2022/10/03 00:47:04;;;;;;;17.60;8.50;;;11.50;99.90;;;;;;5049086;28;20518;-79
2022/10/03 00:49:41;;;;;;;12.67;7.67;;;11.50;99.90;;;;;;5049894;28;20466;-80
2022/10/03 00:52:35;;;;;;;15.50;9.13;;;11.50;99.90;;;;;;5049682;28;20909;-80
2022/10/03 00:55:31;;;;;;;15.60;8.50;;;11.50;99.90;;;;;;5042726;28;21115;-80
2022/10/03 00:57:56;;;;;;;15.63;8.03;;;11.50;99.90;;;;;;5049582;28;20408;-80
2022/10/03 01:00:31;;;;;;;15.13;9.97;;;11.60;99.90;;;;;;5047895;28;21133;-79
2022/10/03 01:03:21;;;;;;;22.20;9.83;;;11.60;99.90;;;;;;5048511;28;20188;-81
2022/10/03 01:05:47;;;;;;;20.97;9.73;;;11.60;99.90;;;;;;5049585;28;20968;-80
2022/10/03 01:08:46;;;;;;;12.97;8.43;;;11.70;99.90;;;;;;5051049;28;20517;-79
2022/10/03 01:11:45;;;;;;;20.33;9.10;;;11.60;99.90;;;;;;5051309;28;20186;-81
2022/10/03 01:14:45;;;;;;;13.67;8.37;;;11.60;99.90;;;;;;5039274;28;20448;-84
2022/10/03 01:17:29;;;;;;;10.23;7.33;;;11.70;99.90;;;;;;5052060;28;20526;-81
2022/10/03 01:20:13;;;;;;;13.17;6.93;;;11.70;99.90;;;;;;5052084;28;20473;-82
2022/10/03 01:22:59;;;;;;;20.60;7.83;;;11.70;99.90;;;;;;5053771;28;20404;-81
2022/10/03 01:25:34;;;;;;;21.37;7.53;;;11.70;99.90;;;;;;5052548;28;20845;-81
2022/10/03 01:31:21;;;;;;;10.70;5.67;;;11.60;99.90;;;;;;5053589;28;20450;-81
2022/10/03 01:34:00;;;;;;;7.27;6.17;;;11.60;99.90;;;;;;5051427;28;20457;-79
2022/10/03 01:36:31;;;;;;;14.03;6.53;;;11.70;99.90;;;;;;5052207;28;20463;-78
2022/10/03 01:39:39;;;;;;;12.90;5.77;;;11.60;99.90;;;;;;5050612;28;20440;-80
2022/10/03 01:42:16;;;;;;;13.20;6.10;;;11.60;99.90;;;;;;5047690;28;20439;-78
2022/10/03 01:45:11;;;;;;;9.20;6.67;;;11.60;99.90;;;;;;5051509;28;20772;-79
2022/10/03 01:47:46;;;;;;;11.17;6.60;;;11.60;99.90;;;;;;5049994;28;20443;-79
2022/10/03 01:50:37;;;;;;;11.73;7.30;;;11.60;99.90;;;;;;5051590;28;20415;-79
2022/10/03 01:53:14;;;;;;;15.37;7.70;;;11.60;99.90;;;;;;5050378;28;20412;-78
2022/10/03 01:59:17;;;;;;;9.60;7.20;;;11.50;99.90;;;;;;5040919;28;20419;-79
2022/10/03 02:01:56;;;;;;;15.07;8.53;;;11.50;99.90;;;;;;5043923;28;20845;-77
2022/10/03 02:04:52;;;;;;;12.03;8.33;;;11.50;99.90;;;;;;5050264;28;20445;-78
2022/10/03 02:07:40;;;;;;;15.73;8.30;;;11.50;99.90;;;;;;5051722;28;20427;-77
2022/10/03 02:10:27;;;;;;;13.17;7.63;;;11.50;99.90;;;;;;5050104;28;20817;-78
2022/10/03 02:13:52;;;;;;;13.50;7.60;;;11.40;99.90;;;;;;5051366;28;20458;-78
2022/10/03 02:16:38;;;;;;;12.07;8.53;;;11.50;99.90;;;;;;5037272;28;20459;-78
2022/10/03 02:19:20;;;;;;;13.57;8.80;;;11.50;99.90;;;;;;5048995;28;20413;-78
2022/10/03 02:21:54;;;;;;;13.33;8.33;;;11.50;99.90;;;;;;5051225;28;20492;-79
2022/10/03 02:24:23;;;;;;;16.20;9.60;;;11.50;99.90;;;;;;5049574;28;20451;-79
2022/10/03 02:26:56;;;;;;;13.23;9.20;;;11.50;99.90;;;;;;5051311;28;20455;-77
2022/10/03 02:29:36;;;;;;;17.87;8.63;;;11.40;99.90;;;;;;5049551;28;20421;-79
2022/10/03 02:32:42;;;;;;;13.93;8.50;;;11.40;99.90;;;;;;5049377;28;20480;-79
2022/10/03 02:35:24;;;;;;;15.60;9.17;;;11.40;99.90;;;;;;5049607;28;20442;-78
2022/10/03 02:38:25;;;;;;;18.33;9.63;;;11.40;99.90;;;;;;5051253;28;20472;-77
2022/10/03 02:41:51;;;;;;;15.03;10.10;;;11.50;99.90;;;;;;5051016;28;20505;-79
2022/10/03 02:44:54;;;;;;;18.40;9.33;;;11.40;99.90;;;;;;5051610;28;20449;-79
2022/10/03 02:48:00;;;;;;;14.50;9.40;;;11.40;99.90;;;;;;5049421;28;20420;-78
2022/10/03 02:51:17;;;;;;;18.77;9.30;;;11.40;99.90;;;;;;5051410;28;20971;-81
2022/10/03 02:54:14;;;;;;;22.60;9.67;;;11.40;99.90;;;;;;5027066;28;20457;-80
2022/10/03 02:57:22;;;;;;;14.80;9.17;;;11.30;99.90;;;;;;5049160;28;20456;-81
2022/10/03 03:00:08;;;;;;;12.73;10.00;;;11.40;99.90;;;;;;5050847;28;20420;-80
2022/10/03 03:02:39;;;;;;;20.33;11.60;;;11.40;99.90;;;;;;5050125;28;20431;-79
2022/10/03 03:05:17;;;;;;;14.43;9.10;;;11.40;99.90;;;;;;5049799;28;20493;-79
2022/10/03 03:08:23;;;;;;;18.83;11.10;;;11.40;99.90;;;;;;5048897;28;20409;-80
2022/10/03 03:11:19;;;;;;;17.93;10.43;;;11.30;99.90;;;;;;5049686;28;20796;-81
2022/10/03 03:14:07;;;;;;;18.17;10.50;;;11.30;99.90;;;;;;5050121;28;20966;-80
2022/10/03 03:16:46;;;;;;;26.13;12.77;;;11.30;99.90;;;;;;5049043;28;21282;-77
2022/10/03 03:19:45;;;;;;;17.03;9.67;;;11.30;99.90;;;;;;5049962;28;20449;-78
2022/10/03 03:23:02;;;;;;;;;;;;;;;;;;;;;
2022/10/03 03:25:59;;;;;;;16.03;11.10;;;11.20;99.90;;;;;;5050140;28;20425;-83
2022/10/03 03:29:09;;;;;;;16.90;10.37;;;11.20;99.90;;;;;;5049316;28;20967;-82
2022/10/03 03:31:53;;;;;;;16.03;9.83;;;11.30;99.90;;;;;;5049680;28;21263;-81
2022/10/03 03:34:25;;;;;;;15.40;10.23;;;11.30;99.90;;;;;;5050409;28;20967;-79
2022/10/03 03:37:07;;;;;;;17.27;10.40;;;11.30;99.90;;;;;;5048513;28;20955;-79
2022/10/03 03:40:03;;;;;;;18.30;10.00;;;11.20;99.90;;;;;;5049758;28;20496;-78
2022/10/03 03:42:55;;;;;;;19.53;9.70;;;11.30;99.90;;;;;;5048400;28;20472;-77
2022/10/03 03:45:40;;;;;;;20.47;11.10;;;11.30;99.90;;;;;;5049863;28;20767;-79
2022/10/03 03:48:21;;;;;;;14.60;10.27;;;11.40;99.90;;;;;;5049884;28;20434;-78
2022/10/03 03:51:14;;;;;;;20.87;10.70;;;11.40;99.90;;;;;;5048089;28;20421;-78
2022/10/03 03:54:01;;;;;;;23.17;10.57;;;11.40;99.90;;;;;;5049596;28;20482;-78
2022/10/03 03:57:14;;;;;;;;;;;;;;;;;;;;;
2022/10/03 04:00:13;;;;;;;21.47;11.50;;;11.40;99.90;;;;;;5049653;28;20407;-78
2022/10/03 04:02:49;;;;;;;19.23;11.10;;;11.40;99.90;;;;;;5047949;28;20512;-77
2022/10/03 04:05:47;;;;;;;18.10;11.33;;;11.40;99.90;;;;;;5049508;28;20408;-76
2022/10/03 04:09:09;;;;;;;24.40;12.53;;;11.30;99.90;;;;;;5049349;28;20392;-77
2022/10/03 04:11:57;;;;;;;21.07;10.97;;;11.20;99.90;;;;;;5048888;28;20554;-79
2022/10/03 04:14:57;;;;;;;22.47;11.40;;;11.20;99.90;;;;;;5047565;28;20460;-76
2022/10/03 04:20:49;;;;;;;19.23;11.70;;;11.10;99.90;;;;;;5048884;28;20471;-77
2022/10/03 04:23:49;;;;;;;24.13;11.97;;;11.20;99.90;;;;;;5048693;28;20428;-76
2022/10/03 04:26:27;;;;;;;23.23;12.23;;;11.20;99.90;;;;;;5048647;28;20419;-77
2022/10/03 04:29:11;;;;;;;17.07;11.00;;;11.20;99.90;;;;;;5048831;28;20503;-76
2022/10/03 04:32:00;;;;;;;16.10;11.13;;;11.20;99.90;;;;;;5048925;28;20423;-77
2022/10/03 04:35:00;;;;;;;20.60;11.47;;;11.10;99.90;;;;;;5048904;28;20440;-78
2022/10/03 04:37:50;;;;;;;27.40;11.80;;;11.10;99.90;;;;;;5048249;28;20412;-79
2022/10/03 04:40:43;;;;;;;19.63;11.70;;;11.10;99.90;;;;;;5048702;28;20472;-77
2022/10/03 04:44:03;;;;;;;22.50;12.27;;;11.10;99.90;;;;;;5058521;28;20919;-79
2022/10/03 04:47:05;;;;;;;18.40;10.70;;;11.00;99.90;;;;;;5065417;28;20443;-76
2022/10/03 04:49:52;;;;;;;14.43;10.80;;;11.10;99.90;;;;;;5079288;28;20449;-75
2022/10/03 04:52:54;;;;;;;21.67;12.93;;;11.00;99.90;;;;;;5078444;28;20428;-77
2022/10/03 04:55:46;;;;;;;20.60;11.57;;;11.00;99.90;;;;;;5067651;28;20417;-79
2022/10/03 04:58:41;;;;;;;22.80;12.07;;;11.00;99.90;;;;;;5055676;28;20439;-79
2022/10/03 05:01:29;;;;;;;23.30;12.30;;;11.00;99.90;;;;;;5055659;28;20466;-78
2022/10/03 05:04:09;;;;;;;24.10;12.53;;;11.00;99.90;;;;;;5057045;28;20433;-79
2022/10/03 05:07:30;;;;;;;19.77;12.13;;;11.00;99.90;;;;;;5052258;28;20424;-79
2022/10/03 05:10:04;;;;;;;20.30;12.00;;;11.00;99.90;;;;;;5054676;28;20826;-79
2022/10/03 05:13:10;;;;;;;23.03;14.30;;;11.10;99.90;;;;;;5054136;28;20911;-78
2022/10/03 05:15:51;;;;;;;20.50;13.43;;;11.00;99.90;;;;;;5053274;28;20977;-80
2022/10/03 05:18:35;;;;;;;28.73;12.07;;;11.00;99.90;;;;;;5054208;28;20943;-78
2022/10/03 05:21:09;;;;;;;23.83;13.43;;;11.00;99.90;;;;;;5052899;28;20468;-78
2022/10/03 05:24:02;;;;;;;27.80;14.07;;;11.00;99.90;;;;;;5051734;28;20439;-79
2022/10/03 05:26:39;;;;;;;26.50;14.50;;;11.00;99.90;;;;;;5052648;28;20412;-78
2022/10/03 05:29:42;;;;;;;25.10;14.67;;;11.00;99.90;;;;;;5051610;28;20462;-78
2022/10/03 05:32:38;;;;;;;20.07;12.40;;;11.00;99.90;;;;;;5052732;28;20412;-79
2022/10/03 05:35:34;;;;;;;23.23;13.07;;;11.00;99.90;;;;;;5052379;28;20460;-78
2022/10/03 05:38:53;;;;;;;27.53;13.27;;;11.00;99.90;;;;;;5052606;28;20806;-79
2022/10/03 05:41:48;;;;;;;98.13;15.90;;;11.10;99.90;;;;;;5029863;28;20632;-80
2022/10/03 05:44:16;;;;;;;22.93;13.30;;;11.10;99.90;;;;;;5029508;28;20793;-78
2022/10/03 05:47:43;;;;;;;26.93;14.10;;;11.00;99.90;;;;;;5030644;28;20426;-80
2022/10/03 05:50:37;;;;;;;28.40;15.27;;;11.00;99.90;;;;;;5030685;28;20421;-77
2022/10/03 05:53:33;;;;;;;26.97;16.33;;;11.00;99.90;;;;;;5024780;28;20415;-78
2022/10/03 05:56:30;;;;;;;38.43;18.43;;;11.00;99.90;;;;;;5013973;28;20856;-80
2022/10/03 05:59:44;;;;;;;26.13;16.20;;;10.90;99.90;;;;;;5045565;28;20964;-79
2022/10/03 06:02:48;;;;;;;39.63;17.47;;;11.00;99.90;;;;;;5054234;28;20910;-78
2022/10/03 06:05:25;;;;;;;33.07;17.33;;;11.00;99.90;;;;;;5035973;28;20453;-77
2022/10/03 06:11:46;;;;;;;34.50;16.43;;;11.10;99.90;;;;;;5052187;28;20442;-78
2022/10/03 06:14:23;;;;;;;26.07;15.40;;;11.10;99.90;;;;;;5052684;28;20556;-78
2022/10/03 06:18:01;;;;;;;24.47;16.13;;;11.10;99.90;;;;;;5051423;28;20415;-77
2022/10/03 06:20:57;;;;;;;30.57;18.57;;;11.20;99.90;;;;;;5029289;28;20498;-78
2022/10/03 06:24:14;;;;;;;26.40;16.17;;;11.30;99.90;;;;;;5051628;28;20811;-79
2022/10/03 06:26:55;;;;;;;29.47;17.10;;;11.30;99.90;;;;;;5039348;28;20439;-78
2022/10/03 06:29:26;;;;;;;50.33;26.10;;;11.40;99.90;;;;;;5051171;28;20498;-78
2022/10/03 06:31:55;;;;;;;38.13;21.63;;;11.40;99.90;;;;;;5051496;28;20960;-78
2022/10/03 06:35:25;;;;;;;61.43;28.77;;;11.40;99.90;;;;;;5049579;28;21072;-77
2022/10/03 06:38:33;;;;;;;39.03;21.20;;;11.40;99.90;;;;;;5024184;28;20439;-78
2022/10/03 06:41:23;;;;;;;21.67;14.20;;;11.50;99.90;;;;;;5028451;28;20462;-78
2022/10/03 06:44:22;;;;;;;28.30;18.03;;;11.50;99.90;;;;;;5051131;28;20436;-78
2022/10/03 06:47:22;;;;;;;41.30;21.80;;;11.50;99.90;;;;;;5051188;28;20413;-78
2022/10/03 06:50:00;;;;;;;44.03;22.40;;;11.50;99.90;;;;;;5051353;28;20482;-79
2022/10/03 06:52:52;;;;;;;27.40;15.70;;;11.50;99.90;;;;;;5049666;28;20425;-78
2022/10/03 06:55:51;;;;;;;37.93;19.80;;;11.40;99.90;;;;;;5051408;28;20414;-78
2022/10/03 06:58:37;;;;;;;53.33;32.63;;;11.40;99.90;;;;;;5050228;28;20978;-79
2022/10/03 07:01:30;;;;;;;34.80;16.90;;;11.30;99.90;;;;;;5052038;28;20513;-79
2022/10/03 07:04:17;;;;;;;31.17;19.57;;;11.30;99.90;;;;;;5049904;28;20449;-80
2022/10/03 07:06:55;;;;;;;71.07;40.57;;;11.30;99.90;;;;;;5050966;28;20501;-79
2022/10/03 07:10:01;;;;;;;78.43;43.33;;;11.30;99.90;;;;;;5049506;28;20621;-79
2022/10/03 07:12:43;;;;;;;25.17;15.27;;;11.20;99.90;;;;;;5050971;28;20417;-79
2022/10/03 07:15:13;;;;;;;44.43;31.40;;;11.30;99.90;;;;;;5049570;28;20444;-79
2022/10/03 07:17:51;;;;;;;97.60;51.03;;;11.40;99.90;;;;;;5050838;28;20418;-78
2022/10/03 07:20:46;;;;;;;26.83;16.87;;;11.30;99.90;;;;;;5050167;28;21164;-79
2022/10/03 07:23:52;;;;;;;19.50;13.20;;;11.30;99.90;;;;;;5050021;28;20429;-79
2022/10/03 07:26:42;;;;;;;27.57;14.30;;;11.40;99.90;;;;;;5048644;28;20429;-78
2022/10/03 07:29:40;;;;;;;23.70;14.33;;;11.40;99.90;;;;;;5048985;28;20530;-78
2022/10/03 07:32:06;;;;;;;24.40;13.97;;;11.50;99.90;;;;;;5048806;28;20428;-80
2022/10/03 07:34:40;;;;;;;18.37;12.77;;;11.50;99.90;;;;;;5050026;28;20443;-78
2022/10/03 07:40:53;;;;;;;26.20;13.80;;;11.40;99.90;;;;;;5050134;28;20835;-78
2022/10/03 07:43:47;;;;;;;28.30;14.90;;;11.60;99.90;;;;;;5050126;28;21089;-78
2022/10/03 07:46:53;;;;;;;26.73;16.97;;;11.60;99.90;;;;;;5048548;28;20428;-79
2022/10/03 07:50:14;;;;;;;25.80;13.10;;;11.60;99.90;;;;;;5049799;28;20413;-79
2022/10/03 07:53:12;;;;;;;30.70;15.30;;;11.60;99.90;;;;;;5048811;28;20809;-78
2022/10/03 07:56:31;;;;;;;21.33;13.57;;;11.60;99.90;;;;;;5048211;28;20440;-78
2022/10/03 07:59:16;;;;;;;26.87;14.60;;;11.80;99.90;;;;;;5048156;28;20425;-79
2022/10/03 08:02:09;;;;;;;21.57;13.10;;;11.80;99.90;;;;;;5048058;28;20873;-79
2022/10/03 08:05:19;;;;;;;32.07;18.50;;;12.00;99.90;;;;;;5049238;28;20440;-79
2022/10/03 08:08:35;;;;;;;56.07;31.40;;;12.10;99.90;;;;;;5026552;28;20421;-78
2022/10/03 08:11:20;;;;;;;22.90;14.17;;;12.30;99.90;;;;;;5014724;28;20868;-79
2022/10/03 08:17:12;;;;;;;25.53;13.80;;;12.70;99.90;;;;;;5048931;28;20429;-79
2022/10/03 08:20:05;;;;;;;19.57;13.43;;;12.60;99.90;;;;;;5049334;28;20840;-79
2022/10/03 08:23:09;;;;;;;24.90;15.07;;;12.50;99.90;;;;;;5047578;28;20437;-79
2022/10/03 08:26:16;;;;;;;30.67;14.73;;;12.50;99.90;;;;;;5026462;28;20432;-78
2022/10/03 08:29:32;;;;;;;27.53;16.33;;;12.40;99.90;;;;;;5047742;28;20426;-78
2022/10/03 08:32:38;;;;;;;26.27;16.37;;;12.30;99.90;;;;;;5017562;28;20512;-78
2022/10/03 08:35:34;;;;;;;23.50;15.20;;;12.20;99.90;;;;;;5047923;28;20446;-78
2022/10/03 08:38:24;;;;;;;24.17;13.63;;;12.30;99.90;;;;;;5048432;28;20809;-78
2022/10/03 08:41:20;;;;;;;23.83;14.40;;;12.30;99.90;;;;;;5048735;28;20519;-78
2022/10/03 08:44:05;;;;;;;24.33;12.40;;;12.30;99.90;;;;;;5048147;28;20539;-78
2022/10/03 08:47:27;;;;;;;27.80;15.13;;;12.30;99.90;;;;;;5049133;28;20406;-78
2022/10/03 08:50:38;;;;;;;28.03;16.77;;;12.40;99.90;;;;;;5031844;28;20515;-79
2022/10/03 08:54:07;;;;;;;27.50;15.80;;;12.40;99.90;;;;;;5048711;28;20419;-79
2022/10/03 08:57:07;;;;;;;32.33;14.50;;;12.30;99.90;;;;;;4991289;28;20451;-78
2022/10/03 09:00:10;;;;;;;22.43;14.93;;;12.30;99.90;;;;;;5047410;28;20486;-78
2022/10/03 09:03:10;;;;;;;26.33;13.67;;;12.30;99.90;;;;;;5048758;28;20444;-77
2022/10/03 09:05:55;;;;;;;29.10;15.30;;;12.20;99.90;;;;;;5047397;28;20436;-79
2022/10/03 09:08:46;;;;;;;25.60;15.10;;;12.20;99.90;;;;;;5050061;28;20417;-78
2022/10/03 09:11:24;;;;;;;22.93;16.13;;;12.20;99.90;;;;;;5047657;28;20419;-79
2022/10/03 09:14:34;;;;;;;25.57;15.37;;;12.30;99.90;;;;;;5047662;28;20447;-79
2022/10/03 09:17:21;;;;;;;29.87;14.93;;;12.40;99.90;;;;;;5048687;28;21224;-77
2022/10/03 09:20:25;;;;;;;25.80;14.10;;;12.50;99.90;;;;;;5048680;28;20443;-78
2022/10/03 09:23:21;;;;;;;24.23;14.13;;;12.50;99.90;;;;;;5048581;28;20477;-79
2022/10/03 09:26:27;;;;;;;27.10;12.83;;;12.70;99.90;;;;;;5049026;28;20447;-79
2022/10/03 09:29:40;;;;;;;25.90;14.97;;;12.90;99.90;;;;;;5051249;28;20427;-79
2022/10/03 09:32:27;;;;;;;23.40;12.93;;;13.30;99.90;;;;;;5051492;28;20417;-79
2022/10/03 09:35:40;;;;;;;19.10;13.00;;;13.60;99.90;;;;;;5053319;28;20812;-77
2022/10/03 09:38:27;;;;;;;17.83;11.57;;;14.00;99.90;;;;;;5032550;28;20418;-79
2022/10/03 09:41:15;;;;;;;15.63;10.97;;;15.00;99.90;;;;;;5052010;28;20461;-79
2022/10/03 09:43:56;;;;;;;17.50;10.73;;;16.30;99.90;;;;;;5051005;28;21031;-79
2022/10/03 09:50:12;;;;;;;13.23;9.63;;;16.80;99.90;;;;;;5050273;28;20430;-78
2022/10/03 09:53:08;;;;;;;13.70;9.30;;;16.10;99.90;;;;;;5052133;28;20420;-77
2022/10/03 09:56:25;;;;;;;14.80;9.53;;;15.60;99.90;;;;;;5050836;28;20415;-77
2022/10/03 09:59:20;;;;;;;17.00;10.10;;;15.40;99.90;;;;;;5020913;28;20528;-76
2022/10/03 10:02:23;;;;;;;22.83;11.97;;;15.10;99.90;;;;;;5052150;28;20460;-79
2022/10/03 10:05:44;;;;;;;13.47;9.30;;;14.80;99.90;;;;;;5051449;28;20525;-79
2022/10/03 10:08:59;;;;;;;15.37;10.30;;;14.70;99.90;;;;;;5035485;28;20568;-78
2022/10/03 10:14:37;;;;;;;13.27;9.17;;;14.80;99.90;;;;;;5051528;28;20426;-79
2022/10/03 10:18:01;;;;;;;16.27;8.80;;;16.20;99.90;;;;;;5050248;28;20420;-77
2022/10/03 10:20:56;;;;;;;17.37;7.60;;;17.00;99.90;;;;;;4991761;28;21484;-78
2022/10/03 10:23:50;;;;;;;11.43;7.00;;;18.00;99.90;;;;;;4978142;28;20447;-78
2022/10/03 10:26:18;;;;;;;9.20;7.07;;;17.40;99.90;;;;;;5044955;28;20435;-77
2022/10/03 10:29:01;;;;;;;14.07;8.23;;;17.10;99.90;;;;;;5049914;28;20425;-79
2022/10/03 10:32:43;;;;;;;18.57;8.90;;;16.80;99.90;;;;;;5049699;28;20462;-78
2022/10/03 10:35:43;;;;;;;12.40;9.70;;;16.30;99.90;;;;;;5047856;28;20501;-77
2022/10/03 10:38:43;;;;;;;14.23;8.33;;;15.90;99.90;;;;;;5049276;28;20518;-78
2022/10/03 10:41:17;;;;;;;16.17;8.90;;;15.60;99.90;;;;;;5051448;28;20438;-78
2022/10/03 10:44:27;;;;;;;17.77;9.23;;;15.40;99.90;;;;;;5053764;28;20430;-78
2022/10/03 10:47:27;;;;;;;22.57;9.87;;;15.20;99.90;;;;;;5054758;28;20410;-78
2022/10/03 10:50:54;;;;;;;16.73;9.20;;;15.00;99.90;;;;;;5054906;28;20410;-78
2022/10/03 10:54:06;;;;;;;13.53;9.10;;;14.80;99.90;;;;;;5011952;28;20472;-79
2022/10/03 10:57:02;;;;;;;12.17;7.73;;;15.30;99.90;;;;;;4996771;28;20452;-79
2022/10/03 11:00:14;;;;;;;10.00;6.97;;;16.80;99.90;;;;;;5013128;28;20429;-79
2022/10/03 11:03:30;;;;;;;14.23;6.20;;;17.70;99.90;;;;;;5023165;28;20434;-78
2022/10/03 11:10:14;;;;;;;7.87;5.77;;;18.00;99.90;;;;;;5041857;28;20507;-76
2022/10/03 11:13:05;;;;;;;10.67;7.50;;;18.50;99.90;;;;;;5049471;28;20420;-78
2022/10/03 11:16:17;;;;;;;11.97;6.97;;;18.00;99.90;;;;;;5051211;28;20448;-80
2022/10/03 11:19:11;;;;;;;11.60;7.27;;;17.50;99.90;;;;;;5052202;28;20424;-80
2022/10/03 11:22:25;;;;;;;14.50;7.10;;;17.00;99.90;;;;;;5050842;28;21001;-80
2022/10/03 11:25:31;;;;;;;11.93;6.27;;;16.60;99.90;;;;;;5051373;28;20452;-80
2022/10/03 11:28:51;;;;;;;10.47;6.20;;;16.30;99.90;;;;;;5051168;28;20426;-80
2022/10/03 11:31:44;;;;;;;10.77;5.67;;;16.00;99.90;;;;;;5051337;28;20480;-77
2022/10/03 11:34:19;;;;;;;9.20;5.20;;;16.00;99.90;;;;;;5050961;28;20444;-78
2022/10/03 11:36:51;;;;;;;12.90;5.43;;;16.00;99.90;;;;;;5051777;28;20437;-77
2022/10/03 11:39:41;;;;;;;10.67;5.00;;;15.90;99.90;;;;;;5050182;28;20456;-77
2022/10/03 11:43:23;;;;;;;10.60;5.40;;;15.80;99.90;;;;;;5051007;28;20976;-78
2022/10/03 11:46:05;;;;;;;17.10;6.00;;;15.90;99.90;;;;;;4919324;28;21017;-76
2022/10/03 11:51:47;;;;;;;11.53;5.40;;;16.90;99.90;;;;;;5051845;28;20515;-77
2022/10/03 11:54:26;;;;;;;11.20;4.60;;;17.30;99.90;;;;;;5053049;28;20446;-77
2022/10/03 11:57:43;;;;;;;5.73;3.73;;;17.80;99.90;;;;;;5052421;28;20427;-77
2022/10/03 12:00:22;;;;;;;8.90;4.10;;;18.30;99.90;;;;;;5027094;28;21038;-77
2022/10/03 12:03:05;;;;;;;7.20;4.73;;;18.50;99.90;;;;;;5051190;28;20933;-80
2022/10/03 12:05:39;;;;;;;9.47;3.93;;;18.00;99.90;;;;;;5051908;28;20563;-79
2022/10/03 12:12:02;;;;;;;9.23;3.90;;;18.30;99.90;;;;;;5052005;28;20935;-77
2022/10/03 12:14:45;;;;;;;8.23;4.17;;;18.00;99.90;;;;;;5050985;28;20438;-77
2022/10/03 12:17:26;;;;;;;11.13;3.90;;;17.60;99.90;;;;;;5050883;28;20414;-77
2022/10/03 12:20:04;;;;;;;8.80;4.30;;;17.20;99.90;;;;;;5049599;28;20498;-77
2022/10/03 12:23:06;;;;;;;8.30;4.70;;;16.80;99.90;;;;;;5048467;28;20500;-79
2022/10/03 12:25:35;;;;;;;5.90;4.00;;;16.60;99.90;;;;;;5049773;28;20775;-78
2022/10/03 12:28:01;;;;;;;7.97;4.80;;;16.30;99.90;;;;;;5048346;28;20532;-78
2022/10/03 12:30:53;;;;;;;12.17;4.67;;;16.10;99.90;;;;;;5049900;28;21001;-78
2022/10/03 12:33:25;;;;;;;10.60;5.20;;;16.00;99.90;;;;;;5049283;28;20197;-78
2022/10/03 12:36:16;;;;;;;11.87;4.70;;;15.90;99.90;;;;;;5048342;28;20469;-78
2022/10/03 12:39:40;;;;;;;12.10;5.63;;;15.80;99.90;;;;;;5049505;28;20901;-78
2022/10/03 12:42:21;;;;;;;10.97;5.03;;;15.80;99.90;;;;;;5006591;28;20471;-79
2022/10/03 12:45:09;;;;;;;8.60;5.30;;;15.70;99.90;;;;;;5006783;28;20507;-77
2022/10/03 12:47:47;;;;;;;11.67;4.80;;;15.70;99.90;;;;;;5007415;28;20435;-78
2022/10/03 12:50:37;;;;;;;10.73;4.60;;;15.90;99.90;;;;;;5007007;28;20871;-77
2022/10/03 12:53:20;;;;;;;12.93;5.47;;;16.30;99.90;;;;;;5006887;28;20425;-77
2022/10/03 12:56:21;;;;;;;6.90;4.90;;;16.70;99.90;;;;;;5001550;28;20442;-77
2022/10/03 12:59:02;;;;;;;8.70;4.30;;;17.10;99.90;;;;;;5047799;28;20444;-78
2022/10/03 13:02:07;;;;;;;7.63;3.60;;;17.40;99.90;;;;;;5049119;28;20528;-77
2022/10/03 13:04:58;;;;;;;8.87;5.20;;;17.80;99.90;;;;;;5020440;28;20523;-76
2022/10/03 13:08:11;;;;;;;9.90;4.87;;;17.80;99.90;;;;;;5052859;28;20412;-77
2022/10/03 13:10:58;;;;;;;11.90;4.60;;;17.80;99.90;;;;;;5043380;28;20501;-76
2022/10/03 13:13:36;;;;;;;8.70;4.70;;;17.90;99.90;;;;;;5053158;28;20443;-78
2022/10/03 13:16:19;;;;;;;9.77;4.30;;;18.10;99.90;;;;;;5053010;28;20411;-77
2022/10/03 13:19:04;;;;;;;9.47;4.50;;;18.20;99.90;;;;;;5052910;28;20504;-78
2022/10/03 13:21:52;;;;;;;10.93;4.20;;;18.10;99.90;;;;;;5052796;28;20467;-78
2022/10/03 13:24:49;;;;;;;7.93;3.83;;;18.10;99.90;;;;;;5051307;28;20444;-77
2022/10/03 13:27:45;;;;;;;9.30;3.90;;;18.00;99.90;;;;;;5054049;28;20468;-76
2022/10/03 13:30:23;;;;;;;8.70;4.03;;;17.80;99.90;;;;;;5054673;28;20418;-77
2022/10/03 13:32:48;;;;;;;9.90;4.50;;;17.30;99.90;;;;;;5053361;28;20957;-76
2022/10/03 13:41:59;;;;;;;7.73;4.00;;;17.00;99.90;;;;;;5051784;28;20659;-77
2022/10/03 13:44:48;;;;;;;13.97;4.40;;;17.00;99.90;;;;;;5051659;28;20490;-78
2022/10/03 13:47:16;;;;;;;11.67;4.00;;;17.00;99.90;;;;;;5053087;28;20416;-77
2022/10/03 13:49:54;;;;;;;10.97;4.13;;;17.20;99.90;;;;;;5053260;28;20478;-78
2022/10/03 13:52:37;;;;;;;5.70;4.03;;;17.20;99.90;;;;;;5052855;28;20413;-78
2022/10/03 13:55:12;;;;;;;8.77;4.37;;;17.10;99.90;;;;;;5053382;28;20432;-77
2022/10/03 13:57:59;;;;;;;13.50;4.10;;;16.90;99.90;;;;;;5051145;28;20521;-77
2022/10/03 14:00:34;;;;;;;6.50;4.30;;;16.70;99.90;;;;;;5052262;28;20459;-77
2022/10/03 14:03:23;;;;;;;6.70;4.00;;;16.50;99.90;;;;;;5052873;28;20424;-77
2022/10/03 14:06:23;;;;;;;8.33;3.97;;;16.50;99.90;;;;;;5051940;28;20408;-77
2022/10/03 14:09:11;;;;;;;8.83;4.53;;;16.40;99.90;;;;;;5050647;28;20416;-78
2022/10/03 14:12:10;;;;;;;9.93;4.40;;;16.20;99.90;;;;;;5052229;28;20482;-78
2022/10/03 14:15:14;;;;;;;9.87;4.40;;;16.00;99.90;;;;;;5050729;28;20444;-78
2022/10/03 14:18:05;;;;;;;6.90;4.47;;;16.00;99.90;;;;;;5051449;28;20889;-78
2022/10/03 14:20:55;;;;;;;21.60;5.40;;;16.00;99.90;;;;;;5051913;28;20911;-78
2022/10/03 14:23:37;;;;;;;9.77;3.90;;;16.00;99.90;;;;;;5050384;28;20447;-79
2022/10/03 14:26:40;;;;;;;13.83;4.37;;;16.10;99.90;;;;;;5052025;28;20781;-78
2022/10/03 14:29:09;;;;;;;8.50;3.90;;;16.20;99.90;;;;;;5043267;28;20832;-79
2022/10/03 14:32:04;;;;;;;8.00;3.93;;;16.30;99.90;;;;;;5051156;28;20503;-78
2022/10/03 14:34:53;;;;;;;24.60;5.13;;;16.40;99.90;;;;;;5045819;28;20439;-77
2022/10/03 14:37:34;;;;;;;8.33;4.20;;;16.30;99.90;;;;;;5041644;28;20443;-77
2022/10/03 14:40:17;;;;;;;10.47;4.13;;;16.30;99.90;;;;;;5049648;28;20427;-76
2022/10/03 14:43:01;;;;;;;8.00;4.27;;;16.20;99.90;;;;;;5049709;28;20464;-77
2022/10/03 14:45:36;;;;;;;7.87;3.87;;;16.30;99.90;;;;;;5050193;28;20506;-79
2022/10/03 14:48:10;;;;;;;9.87;4.13;;;16.30;99.90;;;;;;5051477;28;20493;-77
2022/10/03 14:50:39;;;;;;;9.57;4.30;;;16.30;99.90;;;;;;5052160;28;20415;-78
2022/10/03 14:53:17;;;;;;;8.40;4.43;;;16.40;99.90;;;;;;5049770;28;20498;-77
2022/10/03 14:56:01;;;;;;;12.43;4.33;;;16.30;99.90;;;;;;5051688;28;20408;-78
2022/10/03 14:58:36;;;;;;;11.73;4.40;;;16.30;99.90;;;;;;5049595;28;20486;-78
2022/10/03 15:01:06;;;;;;;6.50;3.70;;;16.40;99.90;;;;;;5049938;28;20483;-77
2022/10/03 15:03:39;;;;;;;9.70;4.70;;;16.30;99.90;;;;;;5051709;28;20445;-78
2022/10/03 15:06:42;;;;;;;14.27;4.10;;;16.20;99.90;;;;;;5050858;28;20882;-77
2022/10/03 15:09:11;;;;;;;9.00;3.83;;;16.30;99.90;;;;;;5049623;28;20416;-77
2022/10/03 15:11:59;;;;;;;9.03;3.63;;;16.20;99.90;;;;;;5049192;28;20421;-77
2022/10/03 15:14:27;;;;;;;9.67;3.50;;;16.20;99.90;;;;;;5050489;28;20441;-77
2022/10/03 15:16:55;;;;;;;12.40;4.20;;;16.20;99.90;;;;;;5050692;28;20951;-78
2022/10/03 15:19:24;;;;;;;13.10;4.20;;;16.20;99.90;;;;;;5050453;28;20419;-78
2022/10/03 15:21:55;;;;;;;10.80;4.53;;;16.20;99.90;;;;;;5049029;28;20527;-77